sensor_id;sensor_type;location;lat;lon;timestamp;pressure;altitude;pressure_sealevel;temperature
31528;BMP280;10206;48.012;10.030;2023-02-15T00:00:14;96010.28;;;3.04
31528;BMP280;10206;48.012;10.030;2023-02-15T00:02:40;96010.03;;;3.02
31528;BMP280;10206;48.012;10.030;2023-02-15T00:05:07;96009.97;;;3.33
31528;BMP280;10206;48.012;10.030;2023-02-15T00:07:33;96009.19;;;3.16
31528;BMP280;10206;48.012;10.030;2023-02-15T00:09:59;96016.09;;;3.28
31528;BMP280;10206;48.012;10.030;2023-02-15T00:12:26;96008.34;;;3.41
31528;BMP280;10206;48.012;10.030;2023-02-15T00:14:52;96005.41;;;3.50
31528;BMP280;10206;48.012;10.030;2023-02-15T00:17:18;95997.81;;;3.49
31528;BMP280;10206;48.012;10.030;2023-02-15T00:19:44;95994.03;;;3.29
31528;BMP280;10206;48.012;10.030;2023-02-15T00:22:10;95990.34;;;3.27
31528;BMP280;10206;48.012;10.030;2023-02-15T00:24:36;95992.34;;;3.32
31528;BMP280;10206;48.012;10.030;2023-02-15T00:27:02;96009.69;;;3.20
31528;BMP280;10206;48.012;10.030;2023-02-15T00:29:28;96001.84;;;3.22
31528;BMP280;10206;48.012;10.030;2023-02-15T00:31:54;95994.47;;;3.17
31528;BMP280;10206;48.012;10.030;2023-02-15T00:34:23;95994.28;;;3.26
31528;BMP280;10206;48.012;10.030;2023-02-15T00:36:50;95997.69;;;3.21
31528;BMP280;10206;48.012;10.030;2023-02-15T00:39:17;95994.00;;;3.18
31528;BMP280;10206;48.012;10.030;2023-02-15T00:41:44;95988.59;;;3.24
31528;BMP280;10206;48.012;10.030;2023-02-15T00:44:11;95984.69;;;3.25
31528;BMP280;10206;48.012;10.030;2023-02-15T00:46:38;95981.34;;;3.36
31528;BMP280;10206;48.012;10.030;2023-02-15T00:49:04;95981.50;;;3.26
31528;BMP280;10206;48.012;10.030;2023-02-15T00:51:31;95978.88;;;2.95
31528;BMP280;10206;48.012;10.030;2023-02-15T00:53:57;95973.09;;;3.08
31528;BMP280;10206;48.012;10.030;2023-02-15T00:56:23;95975.69;;;2.91
31528;BMP280;10206;48.012;10.030;2023-02-15T00:58:49;95962.91;;;2.81
31528;BMP280;10206;48.012;10.030;2023-02-15T01:01:19;95959.59;;;3.02
31528;BMP280;10206;48.012;10.030;2023-02-15T01:03:46;95965.31;;;2.79
31528;BMP280;10206;48.012;10.030;2023-02-15T01:06:14;95963.34;;;2.73
31528;BMP280;10206;48.012;10.030;2023-02-15T01:08:41;95971.53;;;2.96
31528;BMP280;10206;48.012;10.030;2023-02-15T01:11:10;95968.72;;;2.73
31528;BMP280;10206;48.012;10.030;2023-02-15T01:13:37;95972.31;;;2.65
31528;BMP280;10206;48.012;10.030;2023-02-15T01:16:04;95966.38;;;2.55
31528;BMP280;10206;48.012;10.030;2023-02-15T01:18:30;95963.34;;;2.73
31528;BMP280;10206;48.012;10.030;2023-02-15T01:20:56;95965.59;;;2.81
31528;BMP280;10206;48.012;10.030;2023-02-15T01:23:23;95963.59;;;2.75
31528;BMP280;10206;48.012;10.030;2023-02-15T01:25:49;95959.84;;;2.67
31528;BMP280;10206;48.012;10.030;2023-02-15T01:28:15;95961.81;;;2.61
31528;BMP280;10206;48.012;10.030;2023-02-15T01:30:42;95958.84;;;2.65
31528;BMP280;10206;48.012;10.030;2023-02-15T01:33:08;95955.13;;;2.57
31528;BMP280;10206;48.012;10.030;2023-02-15T01:35:43;95953.50;;;2.70
31528;BMP280;10206;48.012;10.030;2023-02-15T01:38:10;95952.22;;;2.60
31528;BMP280;10206;48.012;10.030;2023-02-15T01:40:36;95949.59;;;2.71
31528;BMP280;10206;48.012;10.030;2023-02-15T01:43:02;95949.16;;;2.79
31528;BMP280;10206;48.012;10.030;2023-02-15T01:45:32;95945.56;;;2.56
31528;BMP280;10206;48.012;10.030;2023-02-15T01:50:45;95945.88;;;2.63
31528;BMP280;10206;48.012;10.030;2023-02-15T01:56:01;95946.53;;;2.53
31528;BMP280;10206;48.012;10.030;2023-02-15T01:58:29;95950.28;;;2.61
31528;BMP280;10206;48.012;10.030;2023-02-15T02:00:58;95951.03;;;2.61
31528;BMP280;10206;48.012;10.030;2023-02-15T02:06:16;95947.34;;;2.33
31528;BMP280;10206;48.012;10.030;2023-02-15T02:08:43;95938.41;;;2.47
31528;BMP280;10206;48.012;10.030;2023-02-15T02:11:13;95945.31;;;2.54
31528;BMP280;10206;48.012;10.030;2023-02-15T02:13:41;95940.47;;;2.58
31528;BMP280;10206;48.012;10.030;2023-02-15T02:16:22;95944.25;;;2.46
31528;BMP280;10206;48.012;10.030;2023-02-15T02:19:04;95936.31;;;2.31
31528;BMP280;10206;48.012;10.030;2023-02-15T02:24:37;95937.03;;;2.26
31528;BMP280;10206;48.012;10.030;2023-02-15T02:27:18;95939.84;;;2.43
31528;BMP280;10206;48.012;10.030;2023-02-15T02:30:14;95932.50;;;2.43
31528;BMP280;10206;48.012;10.030;2023-02-15T02:35:24;95935.56;;;2.31
31528;BMP280;10206;48.012;10.030;2023-02-15T02:38:11;95931.94;;;2.34
31528;BMP280;10206;48.012;10.030;2023-02-15T02:46:46;95933.63;;;2.31
31528;BMP280;10206;48.012;10.030;2023-02-15T02:49:12;95932.50;;;2.43
31528;BMP280;10206;48.012;10.030;2023-02-15T02:51:38;95934.41;;;1.80
31528;BMP280;10206;48.012;10.030;2023-02-15T02:54:06;95937.72;;;1.95
31528;BMP280;10206;48.012;10.030;2023-02-15T02:56:37;95929.50;;;1.79
31528;BMP280;10206;48.012;10.030;2023-02-15T02:59:20;95937.50;;;1.99
31528;BMP280;10206;48.012;10.030;2023-02-15T03:04:31;95927.41;;;1.68
31528;BMP280;10206;48.012;10.030;2023-02-15T03:07:03;95936.75;;;1.73
31528;BMP280;10206;48.012;10.030;2023-02-15T03:09:39;95927.91;;;1.67
31528;BMP280;10206;48.012;10.030;2023-02-15T03:12:10;95923.25;;;1.47
31528;BMP280;10206;48.012;10.030;2023-02-15T03:14:37;95930.97;;;1.59
31528;BMP280;10206;48.012;10.030;2023-02-15T03:17:05;95928.59;;;1.61
31528;BMP280;10206;48.012;10.030;2023-02-15T03:19:34;95922.47;;;1.61
31528;BMP280;10206;48.012;10.030;2023-02-15T03:22:08;95918.06;;;1.84
31528;BMP280;10206;48.012;10.030;2023-02-15T03:24:43;95919.25;;;1.83
31528;BMP280;10206;48.012;10.030;2023-02-15T03:27:15;95915.38;;;1.63
31528;BMP280;10206;48.012;10.030;2023-02-15T03:29:45;95910.47;;;1.62
31528;BMP280;10206;48.012;10.030;2023-02-15T03:32:12;95911.28;;;1.68
31528;BMP280;10206;48.012;10.030;2023-02-15T03:34:40;95905.78;;;1.57
31528;BMP280;10206;48.012;10.030;2023-02-15T03:40:04;95911.22;;;1.42
31528;BMP280;10206;48.012;10.030;2023-02-15T03:43:12;95914.25;;;1.70
31528;BMP280;10206;48.012;10.030;2023-02-15T03:45:40;95917.56;;;1.85
31528;BMP280;10206;48.012;10.030;2023-02-15T03:48:26;95917.03;;;1.81
31528;BMP280;10206;48.012;10.030;2023-02-15T03:50:57;95928.03;;;1.57
31528;BMP280;10206;48.012;10.030;2023-02-15T03:53:43;95923.88;;;1.56
31528;BMP280;10206;48.012;10.030;2023-02-15T03:56:10;95928.44;;;1.71
31528;BMP280;10206;48.012;10.030;2023-02-15T03:58:36;95931.78;;;1.66
31528;BMP280;10206;48.012;10.030;2023-02-15T04:02:26;95932.13;;;1.53
31528;BMP280;10206;48.012;10.030;2023-02-15T04:06:57;95931.66;;;1.34
31528;BMP280;10206;48.012;10.030;2023-02-15T04:09:23;95932.47;;;1.20
31528;BMP280;10206;48.012;10.030;2023-02-15T04:12:07;95928.25;;;1.14
31528;BMP280;10206;48.012;10.030;2023-02-15T04:14:34;95916.03;;;1.13
31528;BMP280;10206;48.012;10.030;2023-02-15T04:17:18;95923.38;;;0.97
31528;BMP280;10206;48.012;10.030;2023-02-15T04:19:44;95926.50;;;0.76
31528;BMP280;10206;48.012;10.030;2023-02-15T04:22:29;95931.47;;;0.83
31528;BMP280;10206;48.012;10.030;2023-02-15T04:25:13;95929.25;;;0.81
31528;BMP280;10206;48.012;10.030;2023-02-15T04:27:42;95929.03;;;0.65
31528;BMP280;10206;48.012;10.030;2023-02-15T04:30:09;95925.94;;;0.72
31528;BMP280;10206;48.012;10.030;2023-02-15T04:32:36;95927.00;;;0.60
31528;BMP280;10206;48.012;10.030;2023-02-15T04:35:03;95927.66;;;0.54
31528;BMP280;10206;48.012;10.030;2023-02-15T04:37:29;95925.03;;;0.45
31528;BMP280;10206;48.012;10.030;2023-02-15T04:39:55;95926.28;;;0.44
31528;BMP280;10206;48.012;10.030;2023-02-15T04:42:21;95930.06;;;0.38
31528;BMP280;10206;48.012;10.030;2023-02-15T04:44:47;95929.03;;;0.50
31528;BMP280;10206;48.012;10.030;2023-02-15T04:47:13;95919.41;;;0.58
31528;BMP280;10206;48.012;10.030;2023-02-15T04:49:40;95916.53;;;0.47
31528;BMP280;10206;48.012;10.030;2023-02-15T04:52:06;95919.69;;;0.45
31528;BMP280;10206;48.012;10.030;2023-02-15T04:54:32;95918.31;;;0.35
31528;BMP280;10206;48.012;10.030;2023-02-15T04:56:58;95909.34;;;0.38
31528;BMP280;10206;48.012;10.030;2023-02-15T04:59:24;95916.16;;;0.39
31528;BMP280;10206;48.012;10.030;2023-02-15T05:01:50;95922.34;;;0.25
31528;BMP280;10206;48.012;10.030;2023-02-15T05:04:16;95908.44;;;0.27
31528;BMP280;10206;48.012;10.030;2023-02-15T05:06:42;95911.00;;;0.36
31528;BMP280;10206;48.012;10.030;2023-02-15T05:09:12;95916.16;;;0.39
31528;BMP280;10206;48.012;10.030;2023-02-15T05:11:38;95903.63;;;0.31
31528;BMP280;10206;48.012;10.030;2023-02-15T05:14:04;95902.50;;;0.23
31528;BMP280;10206;48.012;10.030;2023-02-15T05:16:30;95900.56;;;0.23
31528;BMP280;10206;48.012;10.030;2023-02-15T05:18:57;95897.88;;;0.23
31528;BMP280;10206;48.012;10.030;2023-02-15T05:21:23;95899.84;;;0.23
31528;BMP280;10206;48.012;10.030;2023-02-15T05:23:49;95901.25;;;0.18
31528;BMP280;10206;48.012;10.030;2023-02-15T05:26:21;95890.03;;;0.20
31528;BMP280;10206;48.012;10.030;2023-02-15T05:29:07;95893.94;;;0.19
31528;BMP280;10206;48.012;10.030;2023-02-15T05:31:36;95899.59;;;0.06
31528;BMP280;10206;48.012;10.030;2023-02-15T05:34:03;95906.69;;;0.09
31528;BMP280;10206;48.012;10.030;2023-02-15T05:36:29;95903.06;;;-0.03
31528;BMP280;10206;48.012;10.030;2023-02-15T05:38:56;95899.28;;;0.04
31528;BMP280;10206;48.012;10.030;2023-02-15T05:41:22;95899.75;;;0.17
31528;BMP280;10206;48.012;10.030;2023-02-15T05:43:48;95899.94;;;0.14
31528;BMP280;10206;48.012;10.030;2023-02-15T05:46:14;95912.91;;;0.15
31528;BMP280;10206;48.012;10.030;2023-02-15T05:48:40;95907.72;;;0.12
31528;BMP280;10206;48.012;10.030;2023-02-15T05:51:09;95913.63;;;0.01
31528;BMP280;10206;48.012;10.030;2023-02-15T05:53:37;95918.06;;;0.04
31528;BMP280;10206;48.012;10.030;2023-02-15T05:56:04;95914.75;;;0.09
31528;BMP280;10206;48.012;10.030;2023-02-15T05:58:37;95914.75;;;0.09
31528;BMP280;10206;48.012;10.030;2023-02-15T06:01:18;95922.50;;;-0.08
31528;BMP280;10206;48.012;10.030;2023-02-15T06:03:45;95917.41;;;-0.20
31528;BMP280;10206;48.012;10.030;2023-02-15T06:06:11;95924.03;;;-0.16
31528;BMP280;10206;48.012;10.030;2023-02-15T06:08:38;95925.84;;;0.02
31528;BMP280;10206;48.012;10.030;2023-02-15T06:11:04;95924.34;;;0.01
31528;BMP280;10206;48.012;10.030;2023-02-15T06:13:31;95922.41;;;0.02
31528;BMP280;10206;48.012;10.030;2023-02-15T06:15:57;95928.88;;;-0.05
31528;BMP280;10206;48.012;10.030;2023-02-15T06:18:24;95928.03;;;-0.11
31528;BMP280;10206;48.012;10.030;2023-02-15T06:20:50;95923.31;;;-0.16
31528;BMP280;10206;48.012;10.030;2023-02-15T06:23:16;95921.00;;;-0.23
31528;BMP280;10206;48.012;10.030;2023-02-15T06:25:45;95922.25;;;-0.33
31528;BMP280;10206;48.012;10.030;2023-02-15T06:28:11;95927.59;;;-0.33
31528;BMP280;10206;48.012;10.030;2023-02-15T06:30:37;95927.78;;;-0.37
31528;BMP280;10206;48.012;10.030;2023-02-15T06:33:03;95935.41;;;-0.21
31528;BMP280;10206;48.012;10.030;2023-02-15T06:35:29;95931.56;;;-0.05
31528;BMP280;10206;48.012;10.030;2023-02-15T06:37:56;95933.59;;;0.00
31528;BMP280;10206;48.012;10.030;2023-02-15T06:40:22;95930.44;;;0.02
31528;BMP280;10206;48.012;10.030;2023-02-15T06:42:48;95933.16;;;0.16
31528;BMP280;10206;48.012;10.030;2023-02-15T06:45:14;95936.56;;;0.02
31528;BMP280;10206;48.012;10.030;2023-02-15T06:47:40;95933.88;;;0.02
31528;BMP280;10206;48.012;10.030;2023-02-15T06:50:07;95939.06;;;0.06
31528;BMP280;10206;48.012;10.030;2023-02-15T06:52:33;95940.16;;;0.14
31528;BMP280;10206;48.012;10.030;2023-02-15T06:54:59;95943.22;;;0.21
31528;BMP280;10206;48.012;10.030;2023-02-15T06:57:25;95942.47;;;0.35
31528;BMP280;10206;48.012;10.030;2023-02-15T06:59:52;95955.06;;;0.29
31528;BMP280;10206;48.012;10.030;2023-02-15T07:02:18;95940.88;;;0.58
31528;BMP280;10206;48.012;10.030;2023-02-15T07:04:44;95942.97;;;0.69
31528;BMP280;10206;48.012;10.030;2023-02-15T07:07:11;95940.75;;;0.82
31528;BMP280;10206;48.012;10.030;2023-02-15T07:09:38;95934.09;;;0.77
31528;BMP280;10206;48.012;10.030;2023-02-15T07:12:05;95932.66;;;0.96
31528;BMP280;10206;48.012;10.030;2023-02-15T07:14:50;95934.31;;;1.29
31528;BMP280;10206;48.012;10.030;2023-02-15T07:17:16;95939.75;;;1.54
31528;BMP280;10206;48.012;10.030;2023-02-15T07:19:43;95933.13;;;1.76
31528;BMP280;10206;48.012;10.030;2023-02-15T07:22:09;95930.97;;;1.80
31528;BMP280;10206;48.012;10.030;2023-02-15T07:24:35;95938.59;;;1.87
31528;BMP280;10206;48.012;10.030;2023-02-15T07:27:01;95941.44;;;2.29
31528;BMP280;10206;48.012;10.030;2023-02-15T07:29:28;95948.16;;;2.13
31528;BMP280;10206;48.012;10.030;2023-02-15T07:31:54;95942.59;;;2.48
31528;BMP280;10206;48.012;10.030;2023-02-15T07:34:20;95954.09;;;2.86
31528;BMP280;10206;48.012;10.030;2023-02-15T07:36:46;95948.66;;;3.22
31528;BMP280;10206;48.012;10.030;2023-02-15T07:39:13;95960.44;;;3.25
31528;BMP280;10206;48.012;10.030;2023-02-15T07:41:39;95952.25;;;3.03
31528;BMP280;10206;48.012;10.030;2023-02-15T07:44:05;95949.88;;;3.21
31528;BMP280;10206;48.012;10.030;2023-02-15T07:46:31;95950.22;;;3.46
31528;BMP280;10206;48.012;10.030;2023-02-15T07:48:57;95959.91;;;3.85
31528;BMP280;10206;48.012;10.030;2023-02-15T07:51:23;95945.72;;;4.07
31528;BMP280;10206;48.012;10.030;2023-02-15T07:53:49;95954.06;;;4.37
31528;BMP280;10206;48.012;10.030;2023-02-15T07:56:17;95961.69;;;4.44
31528;BMP280;10206;48.012;10.030;2023-02-15T07:58:43;95940.56;;;4.54
31528;BMP280;10206;48.012;10.030;2023-02-15T08:03:49;95945.72;;;4.24
31528;BMP280;10206;48.012;10.030;2023-02-15T08:06:15;95940.31;;;4.46
31528;BMP280;10206;48.012;10.030;2023-02-15T08:08:42;95936.91;;;4.51
31528;BMP280;10206;48.012;10.030;2023-02-15T08:16:40;95928.31;;;5.27
31528;BMP280;10206;48.012;10.030;2023-02-15T08:19:15;95917.44;;;5.49
31528;BMP280;10206;48.012;10.030;2023-02-15T08:21:43;95926.44;;;5.62
31528;BMP280;10206;48.012;10.030;2023-02-15T08:24:11;95918.94;;;5.80
31528;BMP280;10206;48.012;10.030;2023-02-15T08:26:38;95920.84;;;5.90
31528;BMP280;10206;48.012;10.030;2023-02-15T08:29:05;95907.59;;;6.16
31528;BMP280;10206;48.012;10.030;2023-02-15T08:31:32;95915.31;;;6.07
31528;BMP280;10206;48.012;10.030;2023-02-15T08:33:59;95912.47;;;5.88
31528;BMP280;10206;48.012;10.030;2023-02-15T08:36:27;95920.19;;;5.79
31528;BMP280;10206;48.012;10.030;2023-02-15T08:38:55;95918.09;;;5.96
31528;BMP280;10206;48.012;10.030;2023-02-15T08:41:26;95919.13;;;6.22
31528;BMP280;10206;48.012;10.030;2023-02-15T08:43:54;95917.16;;;5.88
31528;BMP280;10206;48.012;10.030;2023-02-15T08:46:22;95914.28;;;5.80
31528;BMP280;10206;48.012;10.030;2023-02-15T08:48:49;95908.91;;;6.04
31528;BMP280;10206;48.012;10.030;2023-02-15T08:51:17;95910.75;;;6.26
31528;BMP280;10206;48.012;10.030;2023-02-15T08:53:47;95914.38;;;6.28
31528;BMP280;10206;48.012;10.030;2023-02-15T08:56:18;95914.28;;;6.40
31528;BMP280;10206;48.012;10.030;2023-02-15T08:58:44;95915.31;;;6.37
31528;BMP280;10206;48.012;10.030;2023-02-15T09:01:13;95909.28;;;6.73
31528;BMP280;10206;48.012;10.030;2023-02-15T09:03:40;95911.47;;;6.75
31528;BMP280;10206;48.012;10.030;2023-02-15T09:06:06;95917.34;;;7.03
31528;BMP280;10206;48.012;10.030;2023-02-15T09:08:33;95911.34;;;7.10
31528;BMP280;10206;48.012;10.030;2023-02-15T09:11:26;95914.34;;;7.25
31528;BMP280;10206;48.012;10.030;2023-02-15T09:13:55;95918.91;;;7.36
31528;BMP280;10206;48.012;10.030;2023-02-15T09:16:23;95917.72;;;7.31
31528;BMP280;10206;48.012;10.030;2023-02-15T09:18:50;95919.59;;;7.74
31528;BMP280;10206;48.012;10.030;2023-02-15T09:21:19;95919.72;;;7.81
31528;BMP280;10206;48.012;10.030;2023-02-15T09:23:48;95908.78;;;7.87
31528;BMP280;10206;48.012;10.030;2023-02-15T09:26:17;95915.16;;;7.57
31528;BMP280;10206;48.012;10.030;2023-02-15T09:28:43;95910.81;;;8.44
31528;BMP280;10206;48.012;10.030;2023-02-15T09:31:14;95903.25;;;8.37
31528;BMP280;10206;48.012;10.030;2023-02-15T09:33:42;95909.34;;;8.56
31528;BMP280;10206;48.012;10.030;2023-02-15T09:36:23;95909.31;;;9.09
31528;BMP280;10206;48.012;10.030;2023-02-15T09:38:57;95906.97;;;9.26
31528;BMP280;10206;48.012;10.030;2023-02-15T09:41:35;95901.50;;;9.39
31528;BMP280;10206;48.012;10.030;2023-02-15T10:09:42;95900.09;;;10.56
31528;BMP280;10206;48.012;10.030;2023-02-15T10:23:14;95888.66;;;12.05
31528;BMP280;10206;48.012;10.030;2023-02-15T10:25:46;95893.16;;;12.55
31528;BMP280;10206;48.012;10.030;2023-02-15T10:29:05;95893.34;;;12.57
31528;BMP280;10206;48.012;10.030;2023-02-15T10:34:11;95886.09;;;12.99
31528;BMP280;10206;48.012;10.030;2023-02-15T11:02:15;95850.22;;;14.72
31528;BMP280;10206;48.012;10.030;2023-02-15T11:04:51;95850.97;;;14.55
31528;BMP280;10206;48.012;10.030;2023-02-15T11:07:41;95831.94;;;14.40
31528;BMP280;10206;48.012;10.030;2023-02-15T11:10:25;95833.25;;;14.22
31528;BMP280;10206;48.012;10.030;2023-02-15T11:12:54;95831.13;;;14.91
31528;BMP280;10206;48.012;10.030;2023-02-15T11:15:39;95824.84;;;15.08
31528;BMP280;10206;48.012;10.030;2023-02-15T11:23:28;95822.75;;;15.25
31528;BMP280;10206;48.012;10.030;2023-02-15T11:26:04;95821.31;;;15.70
31528;BMP280;10206;48.012;10.030;2023-02-15T11:28:57;95828.00;;;15.86
31528;BMP280;10206;48.012;10.030;2023-02-15T11:31:26;95819.59;;;15.38
31528;BMP280;10206;48.012;10.030;2023-02-15T11:34:23;95809.72;;;15.81
31528;BMP280;10206;48.012;10.030;2023-02-15T11:36:53;95817.16;;;16.17
31528;BMP280;10206;48.012;10.030;2023-02-15T11:39:21;95809.28;;;16.42
31528;BMP280;10206;48.012;10.030;2023-02-15T11:41:53;95812.50;;;16.38
31528;BMP280;10206;48.012;10.030;2023-02-15T11:44:37;95805.66;;;16.58
31528;BMP280;10206;48.012;10.030;2023-02-15T11:47:10;95808.84;;;16.65
31528;BMP280;10206;48.012;10.030;2023-02-15T11:49:37;95809.44;;;17.03
31528;BMP280;10206;48.012;10.030;2023-02-15T11:52:12;95803.81;;;17.01
31528;BMP280;10206;48.012;10.030;2023-02-15T11:54:48;95803.38;;;16.45
31528;BMP280;10206;48.012;10.030;2023-02-15T11:57:33;95800.44;;;16.63
31528;BMP280;10206;48.012;10.030;2023-02-15T12:02:57;95787.25;;;16.51
31528;BMP280;10206;48.012;10.030;2023-02-15T12:05:25;95785.25;;;16.42
31528;BMP280;10206;48.012;10.030;2023-02-15T12:08:01;95786.41;;;16.20
31528;BMP280;10206;48.012;10.030;2023-02-15T12:10:56;95783.22;;;16.43
31528;BMP280;10206;48.012;10.030;2023-02-15T12:13:20;95785.53;;;16.56
31528;BMP280;10206;48.012;10.030;2023-02-15T12:15:48;95778.28;;;16.61
31528;BMP280;10206;48.012;10.030;2023-02-15T12:21:07;95769.00;;;16.56
31528;BMP280;10206;48.012;10.030;2023-02-15T12:23:39;95770.78;;;16.92
31528;BMP280;10206;48.012;10.030;2023-02-15T12:26:07;95768.88;;;16.94
31528;BMP280;10206;48.012;10.030;2023-02-15T12:28:39;95768.31;;;16.08
31528;BMP280;10206;48.012;10.030;2023-02-15T12:31:27;95767.47;;;16.74
31528;BMP280;10206;48.012;10.030;2023-02-15T12:33:56;95773.03;;;17.05
31528;BMP280;10206;48.012;10.030;2023-02-15T12:36:30;95762.25;;;17.39
31528;BMP280;10206;48.012;10.030;2023-02-15T12:41:44;95760.34;;;17.21
31528;BMP280;10206;48.012;10.030;2023-02-15T12:44:26;95762.97;;;17.09
31528;BMP280;10206;48.012;10.030;2023-02-15T12:49:41;95748.25;;;17.26
31528;BMP280;10206;48.012;10.030;2023-02-15T12:54:47;95733.66;;;17.77
31528;BMP280;10206;48.012;10.030;2023-02-15T12:59:53;95738.00;;;17.38
31528;BMP280;10206;48.012;10.030;2023-02-15T13:02:28;95728.31;;;17.06
31528;BMP280;10206;48.012;10.030;2023-02-15T13:04:57;95729.63;;;17.57
31528;BMP280;10206;48.012;10.030;2023-02-15T13:07:30;95733.91;;;17.81
31528;BMP280;10206;48.012;10.030;2023-02-15T13:09:58;95726.69;;;17.76
31528;BMP280;10206;48.012;10.030;2023-02-15T13:12:26;95730.66;;;17.52
31528;BMP280;10206;48.012;10.030;2023-02-15T13:14:55;95718.38;;;17.97
31528;BMP280;10206;48.012;10.030;2023-02-15T13:17:32;95713.88;;;17.81
31528;BMP280;10206;48.012;10.030;2023-02-15T13:20:18;95716.81;;;17.40
31528;BMP280;10206;48.012;10.030;2023-02-15T13:22:47;95712.47;;;17.07
31528;BMP280;10206;48.012;10.030;2023-02-15T13:25:24;95711.25;;;16.98
31528;BMP280;10206;48.012;10.030;2023-02-15T13:27:57;95708.78;;;16.62
31528;BMP280;10206;48.012;10.030;2023-02-15T13:30:38;95707.34;;;16.61
31528;BMP280;10206;48.012;10.030;2023-02-15T13:41:29;95698.34;;;16.11
31528;BMP280;10206;48.012;10.030;2023-02-15T13:47:21;95686.63;;;15.53
31528;BMP280;10206;48.012;10.030;2023-02-15T13:50:17;95688.63;;;16.00
31528;BMP280;10206;48.012;10.030;2023-02-15T13:55:56;95689.16;;;15.13
31528;BMP280;10206;48.012;10.030;2023-02-15T14:00:59;95677.88;;;15.09
31528;BMP280;10206;48.012;10.030;2023-02-15T14:03:49;95677.88;;;15.09
31528;BMP280;10206;48.012;10.030;2023-02-15T14:14:17;95672.97;;;14.35
31528;BMP280;10206;48.012;10.030;2023-02-15T14:17:01;95681.22;;;14.35
31528;BMP280;10206;48.012;10.030;2023-02-15T14:19:44;95673.94;;;14.30
31528;BMP280;10206;48.012;10.030;2023-02-15T14:22:39;95674.00;;;14.13
31528;BMP280;10206;48.012;10.030;2023-02-15T14:25:27;95678.63;;;13.76
31528;BMP280;10206;48.012;10.030;2023-02-15T14:28:03;95678.44;;;14.08
31528;BMP280;10206;48.012;10.030;2023-02-15T14:30:36;95688.94;;;14.02
31528;BMP280;10206;48.012;10.030;2023-02-15T14:33:37;95682.66;;;13.75
31528;BMP280;10206;48.012;10.030;2023-02-15T14:36:07;95687.66;;;13.69
31528;BMP280;10206;48.012;10.030;2023-02-15T14:46:38;95691.00;;;13.01
31528;BMP280;10206;48.012;10.030;2023-02-15T14:49:15;95682.69;;;12.67
31528;BMP280;10206;48.012;10.030;2023-02-15T14:59:45;95680.88;;;12.29
31528;BMP280;10206;48.012;10.030;2023-02-15T15:02:25;95674.97;;;12.16
31528;BMP280;10206;48.012;10.030;2023-02-15T15:05:02;95683.91;;;12.09
31528;BMP280;10206;48.012;10.030;2023-02-15T15:12:44;95689.25;;;11.92
31528;BMP280;10206;48.012;10.030;2023-02-15T15:15:38;95676.75;;;11.73
31528;BMP280;10206;48.012;10.030;2023-02-15T15:18:42;95679.69;;;11.60
31528;BMP280;10206;48.012;10.030;2023-02-15T15:20:57;95682.09;;;11.41
31528;BMP280;10206;48.012;10.030;2023-02-15T15:23:39;95677.72;;;11.38
31528;BMP280;10206;48.012;10.030;2023-02-15T15:26:27;95674.81;;;11.21
31528;BMP280;10206;48.012;10.030;2023-02-15T15:28:55;95678.84;;;11.13
31528;BMP280;10206;48.012;10.030;2023-02-15T15:37:25;95677.16;;;10.79
31528;BMP280;10206;48.012;10.030;2023-02-15T15:45:52;95678.84;;;10.24
31528;BMP280;10206;48.012;10.030;2023-02-15T15:48:32;95675.69;;;10.12
31528;BMP280;10206;48.012;10.030;2023-02-15T15:51:27;95671.16;;;10.15
31528;BMP280;10206;48.012;10.030;2023-02-15T15:53:55;95677.75;;;10.19
31528;BMP280;10206;48.012;10.030;2023-02-15T15:56:29;95676.28;;;10.18
31528;BMP280;10206;48.012;10.030;2023-02-15T15:59:05;95673.63;;;9.90
31528;BMP280;10206;48.012;10.030;2023-02-15T16:01:41;95676.50;;;9.85
31528;BMP280;10206;48.012;10.030;2023-02-15T16:04:13;95683.75;;;9.82
31528;BMP280;10206;48.012;10.030;2023-02-15T16:06:40;95680.44;;;9.48
31528;BMP280;10206;48.012;10.030;2023-02-15T16:11:43;95687.38;;;9.28
31528;BMP280;10206;48.012;10.030;2023-02-15T16:14:20;95680.28;;;9.25
31528;BMP280;10206;48.012;10.030;2023-02-15T16:16:52;95687.66;;;8.97
31528;BMP280;10206;48.012;10.030;2023-02-15T16:19:23;95696.22;;;9.01
31528;BMP280;10206;48.012;10.030;2023-02-15T16:21:50;95700.47;;;9.09
31528;BMP280;10206;48.012;10.030;2023-02-15T16:26:56;95703.69;;;8.66
31528;BMP280;10206;48.012;10.030;2023-02-15T16:29:29;95704.41;;;8.67
31528;BMP280;10206;48.012;10.030;2023-02-15T16:32:15;95716.56;;;8.53
31528;BMP280;10206;48.012;10.030;2023-02-15T16:35:00;95720.34;;;8.50
31528;BMP280;10206;48.012;10.030;2023-02-15T16:37:34;95710.28;;;8.58
31528;BMP280;10206;48.012;10.030;2023-02-15T16:40:00;95713.56;;;8.43
31528;BMP280;10206;48.012;10.030;2023-02-15T16:42:27;95716.50;;;8.45
31528;BMP280;10206;48.012;10.030;2023-02-15T16:45:08;95719.25;;;8.19
31528;BMP280;10206;48.012;10.030;2023-02-15T16:47:41;95718.66;;;8.00
31528;BMP280;10206;48.012;10.030;2023-02-15T16:50:22;95716.34;;;7.91
31528;BMP280;10206;48.012;10.030;2023-02-15T16:52:50;95722.69;;;7.67
31528;BMP280;10206;48.012;10.030;2023-02-15T16:55:39;95722.69;;;7.67
31528;BMP280;10206;48.012;10.030;2023-02-15T16:58:12;95733.13;;;7.63
31528;BMP280;10206;48.012;10.030;2023-02-15T17:00:40;95729.72;;;7.31
31528;BMP280;10206;48.012;10.030;2023-02-15T17:05:59;95735.69;;;7.11
31528;BMP280;10206;48.012;10.030;2023-02-15T17:08:34;95736.34;;;7.04
31528;BMP280;10206;48.012;10.030;2023-02-15T17:11:17;95739.59;;;7.15
31528;BMP280;10206;48.012;10.030;2023-02-15T17:16:32;95748.50;;;6.78
31528;BMP280;10206;48.012;10.030;2023-02-15T17:19:01;95741.47;;;6.88
31528;BMP280;10206;48.012;10.030;2023-02-15T17:21:32;95743.59;;;6.58
31528;BMP280;10206;48.012;10.030;2023-02-15T17:24:00;95755.75;;;6.52
31528;BMP280;10206;48.012;10.030;2023-02-15T17:26:35;95753.91;;;6.60
31528;BMP280;10206;48.012;10.030;2023-02-15T17:29:18;95756.47;;;6.52
31528;BMP280;10206;48.012;10.030;2023-02-15T17:31:49;95759.88;;;6.34
31528;BMP280;10206;48.012;10.030;2023-02-15T17:34:42;95761.66;;;6.31
31528;BMP280;10206;48.012;10.030;2023-02-15T17:40:35;95768.81;;;6.05
31528;BMP280;10206;48.012;10.030;2023-02-15T17:42:54;95767.19;;;5.96